»·PEaware :: VIPER17 KLSV-KLSV

VIPER17 :: KLSV-KLSV

FLIGHT INFORMATION

Flight Status: Arrived
Operator: Unknown
More flights by this operator :: More flights under this callsign
Pilot: Kevin M. (7)
Aircraft: GENERAL DYNAMICS F-16 FIGHTING FALCON
(F16)
More flights by this aircraft type
Origin: KLSV Nellis AFB
United States
Destination: KLSV Nellis AFB
United States
More flights between these airports :: More routes between these airports
Route: +
File this flight plan on PilotEdge
Remarks:
Altitude:
(Current/Filed)
0ft
Speed:
(Current/Filed)
0kts
Departed: 07-Nov-19 12:42 PM
Arrived: 07-Nov-19 01:09 PM
Distance/Time
Traveled:
1nm/0:26
Distance/Time
To Go:
Arrived

Flight Plot

Page will automatically refresh every two minutes.


Map Options




Map Legend


Flown Route
Filed Route
Departure Airport
Arrival Airport
Navaid (VOR, NDB)
Fix

Horizontal Profiles

Position Reports

Time Latitude Longitude Heading Altitude Ground
Speed
07-Nov-19 12:34 36.240570 -115.034522 128 1861ft 0kts
07-Nov-19 12:35 36.240570 -115.034522 128 1861ft 0kts
07-Nov-19 12:36 36.237579 -115.037353 221 1854ft 19kts
07-Nov-19 12:37 36.231417 -115.044060 219 1844ft 28kts
07-Nov-19 12:38 36.227378 -115.047503 131 1839ft 0kts
07-Nov-19 12:39 36.227378 -115.047503 131 1839ft 0kts
07-Nov-19 12:40 36.226891 -115.046825 117 1838ft 12kts
07-Nov-19 12:41 36.250448 -115.026400 18 5149ft 364kts
07-Nov-19 12:42 36.343432 -115.054133 340 8571ft 382kts
07-Nov-19 12:43 36.443671 -115.131994 324 16776ft 515kts
07-Nov-19 12:44 36.574499 -115.222023 333 17614ft 541kts
07-Nov-19 12:45 36.707630 -115.310555 331 17057ft 539kts
07-Nov-19 12:46 36.798735 -115.376482 329 30433ft 480kts
07-Nov-19 12:47 36.925796 -115.472820 331 29892ft 536kts
07-Nov-19 12:48 37.066973 -115.469902 27 30087ft 525kts
07-Nov-19 12:49 37.157222 -115.332057 77 29689ft 521kts
07-Nov-19 12:50 37.143490 -115.151818 113 29345ft 532kts
07-Nov-19 12:51 37.042090 -115.024164 151 29370ft 532kts
07-Nov-19 12:52 36.903151 -115.021128 205 30025ft 518kts
07-Nov-19 12:53 36.832540 -115.166910 267 29640ft 529kts
07-Nov-19 12:54 36.832504 -115.348552 269 29988ft 528kts
07-Nov-19 12:55 36.748461 -115.467978 167 26268ft 552kts
07-Nov-19 12:56 36.630642 -115.347421 135 23103ft 572kts
07-Nov-19 12:57 36.518934 -115.212612 124 17310ft 490kts
07-Nov-19 12:58 36.516169 -115.070395 83 16474ft 377kts
07-Nov-19 12:59 36.457439 -114.995297 140 16873ft 306kts
07-Nov-19 13:00 36.394603 -114.915991 137 15716ft 347kts
07-Nov-19 13:01 36.337140 -114.832794 79 15563ft 322kts
07-Nov-19 13:02 36.413839 -114.832874 313 13808ft 333kts
07-Nov-19 13:03 36.403978 -114.936944 210 11198ft 366kts
07-Nov-19 13:04 36.311569 -114.992779 193 7773ft 372kts
07-Nov-19 13:05 36.238044 -115.033647 223 3239ft 267kts
07-Nov-19 13:06 36.264826 -115.034342 46 3035ft 185kts
07-Nov-19 13:07 36.244139 -115.027823 222 1891ft 185kts
07-Nov-19 13:08 36.227095 -115.046701 246 1838ft 11kts
07-Nov-19 13:09 36.228325 -115.048029 293 1841ft 8kts
07-Nov-19 13:10 36.228499 -115.048513 226 1843ft 0kts
07-Nov-19 13:11 36.228499 -115.048513 226 1843ft 0kts
07-Nov-19 13:12 36.228499 -115.048513 226 1843ft 0kts
07-Nov-19 13:13 36.228499 -115.048513 226 1843ft 0kts
07-Nov-19 13:14 36.228499 -115.048513 226 1843ft 0kts
07-Nov-19 13:15 36.228499 -115.048513 226 1843ft 0kts
07-Nov-19 13:16 36.228499 -115.048513 226 1843ft 0kts
07-Nov-19 13:17 36.228499 -115.048513 226 1843ft 0kts
07-Nov-19 13:18 36.228499 -115.048513 226 1843ft 0kts
07-Nov-19 13:19 36.228499 -115.048513 226 1843ft 0kts
07-Nov-19 13:20 36.228499 -115.048513 226 1843ft 0kts
07-Nov-19 13:21 36.228499 -115.048513 226 1843ft 0kts
07-Nov-19 13:22 36.228499 -115.048513 226 1843ft 0kts

Navigation Log

Ident Type
Flight plan parsing failed, navigation log unavailable